createdAt,value
2018-09-18T00:00:18.313Z,9.50
2018-09-18T00:01:18.286Z,11.20
2018-09-18T00:02:18.282Z,13.80
2018-09-18T00:03:18.255Z,9.20
2018-09-18T00:04:18.236Z,7.90
2018-09-18T00:05:18.224Z,8.90
2018-09-18T00:06:18.205Z,8.40
2018-09-18T00:07:18.195Z,8.30
2018-09-18T00:08:18.173Z,8.90
2018-09-18T00:09:18.157Z,9.80
2018-09-18T00:10:18.145Z,11.90
2018-09-18T00:11:18.126Z,10.10
2018-09-18T00:12:18.107Z,9.10
2018-09-18T00:13:18.151Z,11.40
2018-09-18T00:14:18.074Z,10.40
2018-09-18T00:15:18.062Z,9.60
2018-09-18T00:16:18.105Z,12.60
2018-09-18T00:17:18.033Z,9.50
2018-09-18T00:18:18.013Z,10.10
2018-09-18T00:19:17.996Z,8.90
2018-09-18T00:20:17.984Z,9.40
2018-09-18T00:21:17.969Z,7.50
2018-09-18T00:22:17.945Z,10.90
2018-09-18T00:23:17.938Z,9.70
2018-09-18T00:24:17.911Z,9.60
2018-09-18T00:25:17.896Z,8.40
2018-09-18T00:26:17.881Z,11.00
2018-09-18T00:27:17.870Z,11.50
2018-09-18T00:28:17.853Z,8.50
2018-09-18T00:29:17.838Z,13.50
2018-09-18T00:30:17.830Z,9.30
2018-09-18T00:31:17.800Z,10.60
2018-09-18T00:32:17.898Z,9.10
2018-09-18T00:33:17.765Z,9.90
2018-09-18T00:34:17.758Z,10.30
2018-09-18T00:35:17.740Z,7.50
2018-09-18T00:36:17.721Z,9.40
2018-09-18T00:37:17.700Z,9.40
2018-09-18T00:38:17.688Z,9.20
2018-09-18T00:39:17.669Z,10.30
2018-09-18T00:40:17.652Z,7.80
2018-09-18T00:41:17.637Z,7.80
2018-09-18T00:42:17.620Z,9.30
2018-09-18T00:43:17.602Z,8.50
2018-09-18T00:44:17.588Z,11.30
2018-09-18T00:45:17.572Z,8.80
2018-09-18T00:46:17.554Z,9.10
2018-09-18T00:47:17.538Z,19.30
2018-09-18T00:48:17.525Z,8.30
2018-09-18T00:49:17.507Z,12.60
2018-09-18T00:50:17.488Z,8.90
2018-09-18T00:51:17.475Z,8.20
2018-09-18T00:52:17.453Z,10.10
2018-09-18T00:53:17.438Z,8.40
2018-09-18T00:54:17.423Z,8.60
2018-09-18T00:55:17.421Z,10.90
2018-09-18T00:56:17.531Z,9.10
2018-09-18T00:57:17.381Z,7.70
2018-09-18T00:58:17.358Z,9.30
2018-09-18T00:59:17.447Z,10.80
2018-09-18T01:00:17.327Z,8.40
2018-09-18T01:01:17.308Z,11.20
2018-09-18T01:02:17.342Z,8.30
2018-09-18T01:03:17.280Z,7.40
2018-09-18T01:04:17.264Z,9.70
2018-09-18T01:05:17.241Z,9.30
2018-09-18T01:06:17.227Z,9.90
2018-09-18T01:07:17.211Z,8.20
2018-09-18T01:08:17.193Z,9.00
2018-09-18T01:09:17.177Z,8.60
2018-09-18T01:10:17.160Z,10.40
2018-09-18T01:11:17.149Z,12.70
2018-09-18T01:12:17.128Z,9.20
2018-09-18T01:13:17.115Z,7.40
2018-09-18T01:14:17.099Z,7.00
2018-09-18T01:15:17.199Z,9.80
2018-09-18T01:16:17.065Z,9.10
2018-09-18T01:17:17.047Z,9.30
2018-09-18T01:18:17.030Z,9.40
2018-09-18T01:19:17.017Z,10.90
2018-09-18T01:20:16.997Z,10.70
2018-09-18T01:21:16.981Z,8.70
2018-09-18T01:22:16.965Z,8.10
2018-09-18T01:23:16.946Z,10.40
2018-09-18T01:24:16.940Z,12.00
2018-09-18T01:25:16.914Z,10.40
2018-09-18T01:26:16.896Z,10.00
2018-09-18T01:27:16.886Z,9.50
2018-09-18T01:28:16.881Z,10.40
2018-09-18T01:29:16.848Z,9.90
2018-09-18T01:30:16.832Z,9.10
2018-09-18T01:31:16.818Z,11.30
2018-09-18T01:32:16.799Z,8.20
2018-09-18T01:33:16.785Z,9.00
2018-09-18T01:34:16.927Z,8.90
2018-09-18T01:35:16.748Z,9.80
2018-09-18T01:36:16.735Z,11.90
2018-09-18T01:37:16.719Z,13.00
2018-09-18T01:38:16.699Z,9.50
2018-09-18T01:39:16.687Z,8.70
2018-09-18T01:40:16.666Z,9.90
2018-09-18T01:41:16.650Z,12.70
2018-09-18T01:42:16.636Z,9.10
2018-09-18T01:43:16.623Z,8.60
2018-09-18T01:44:16.620Z,8.80
2018-09-18T01:45:16.601Z,12.10
2018-09-18T01:46:16.573Z,9.70
2018-09-18T01:47:16.555Z,10.00
2018-09-18T01:48:16.536Z,9.60
2018-09-18T01:49:16.527Z,13.60
2018-09-18T01:50:16.504Z,9.30
2018-09-18T01:51:16.487Z,13.10
2018-09-18T01:52:16.468Z,10.40
2018-09-18T01:53:16.452Z,9.40
2018-09-18T01:54:16.437Z,11.60
2018-09-18T01:55:16.423Z,8.90
2018-09-18T01:56:16.402Z,8.90
2018-09-18T01:57:16.385Z,10.50
2018-09-18T01:58:16.372Z,12.70
2018-09-18T01:59:16.364Z,7.70
2018-09-18T02:00:16.340Z,9.10
2018-09-18T02:01:16.446Z,9.90
2018-09-18T02:02:16.312Z,11.30
2018-09-18T02:03:16.287Z,10.20
2018-09-18T02:04:16.382Z,10.50
2018-09-18T02:05:49.469Z,8.00
2018-09-18T02:06:16.242Z,8.20
2018-09-18T02:07:16.224Z,9.40
2018-09-18T02:08:16.208Z,8.40
2018-09-18T02:09:16.193Z,11.10
2018-09-18T02:10:16.173Z,8.80
2018-09-18T02:11:16.159Z,10.30
2018-09-18T02:12:16.159Z,9.10
2018-09-18T02:13:16.125Z,9.70
2018-09-18T02:14:16.113Z,8.20
2018-09-18T02:15:16.094Z,10.40
2018-09-18T02:16:16.075Z,10.80
2018-09-18T02:17:16.058Z,8.40
2018-09-18T02:18:16.047Z,8.40
2018-09-18T02:19:16.024Z,9.20
2018-09-18T02:20:16.015Z,11.00
2018-09-18T02:21:15.992Z,8.90
2018-09-18T02:22:15.976Z,8.60
2018-09-18T02:23:15.962Z,12.00
2018-09-18T02:24:15.944Z,8.30
2018-09-18T02:25:15.929Z,8.30
2018-09-18T02:26:15.912Z,8.90
2018-09-18T02:27:15.896Z,10.80
2018-09-18T02:28:15.898Z,10.60
2018-09-18T02:29:15.861Z,9.80
2018-09-18T02:30:15.844Z,8.60
2018-09-18T02:31:15.931Z,10.30
2018-09-18T02:32:15.822Z,8.30
2018-09-18T02:33:15.794Z,9.10
2018-09-18T02:34:15.775Z,10.60
2018-09-18T02:35:15.762Z,9.30
2018-09-18T02:36:15.755Z,9.40
2018-09-18T02:37:15.726Z,9.50
2018-09-18T02:38:15.711Z,10.70
2018-09-18T02:39:15.694Z,10.40
2018-09-18T02:40:15.687Z,10.40
2018-09-18T02:41:15.662Z,14.40
2018-09-18T02:42:15.643Z,9.00
2018-09-18T02:43:15.629Z,8.90
2018-09-18T02:44:15.612Z,9.90
2018-09-18T02:45:15.593Z,11.50
2018-09-18T02:46:15.580Z,11.00
2018-09-18T02:47:15.558Z,8.80
2018-09-18T02:48:15.545Z,8.90
2018-09-18T02:49:15.526Z,10.10
2018-09-18T02:50:15.567Z,8.80
2018-09-18T02:51:15.495Z,15.10
2018-09-18T02:52:15.480Z,10.50
2018-09-18T02:53:15.461Z,11.10
2018-09-18T02:54:15.443Z,7.10
2018-09-18T02:55:15.431Z,7.70
2018-09-18T02:56:15.410Z,7.80
2018-09-18T02:57:15.394Z,10.20
2018-09-18T02:58:15.383Z,9.30
2018-09-18T02:59:15.361Z,7.60
2018-09-18T03:00:15.343Z,7.90
2018-09-18T03:01:15.325Z,9.90
2018-09-18T03:02:15.312Z,9.70
2018-09-18T03:03:15.298Z,9.80
2018-09-18T03:04:15.287Z,8.00
2018-09-18T03:05:15.260Z,8.70
2018-09-18T03:06:15.370Z,7.80
2018-09-18T03:07:15.236Z,8.90
2018-09-18T03:08:15.211Z,9.50
2018-09-18T03:09:15.196Z,8.40
2018-09-18T03:10:15.184Z,9.20
2018-09-18T03:11:15.180Z,7.20
2018-09-18T03:12:15.147Z,11.30
2018-09-18T03:13:15.128Z,11.70
2018-09-18T03:14:15.110Z,9.40
2018-09-18T03:15:15.102Z,10.40
2018-09-18T03:16:15.082Z,8.50
2018-09-18T03:17:15.166Z,8.50
2018-09-18T03:18:15.048Z,8.30
2018-09-18T03:19:15.030Z,12.20
2018-09-18T03:20:15.024Z,8.50
2018-09-18T03:21:15.000Z,10.10
2018-09-18T03:22:14.982Z,7.90
2018-09-18T03:23:14.961Z,9.00
2018-09-18T03:24:14.951Z,7.50
2018-09-18T03:25:14.930Z,9.20
2018-09-18T03:26:14.912Z,10.20
2018-09-18T03:27:14.947Z,11.00
2018-09-18T03:28:14.878Z,9.90
2018-09-18T03:29:14.862Z,13.00
2018-09-18T03:30:14.860Z,8.00
2018-09-18T03:31:14.832Z,11.10
2018-09-18T03:32:14.816Z,11.40
2018-09-18T03:33:14.800Z,10.30
2018-09-18T03:34:14.788Z,9.20
2018-09-18T03:35:14.762Z,8.00
2018-09-18T03:36:14.898Z,8.10
2018-09-18T03:37:14.731Z,9.20
2018-09-18T03:38:14.717Z,8.60
2018-09-18T03:39:14.695Z,9.60
2018-09-18T03:40:14.679Z,10.50
2018-09-18T03:41:14.666Z,8.40
2018-09-18T03:42:14.646Z,8.90
2018-09-18T03:43:14.628Z,11.20
2018-09-18T03:44:14.616Z,9.90
2018-09-18T03:45:14.599Z,9.50
2018-09-18T03:46:14.589Z,10.30
2018-09-18T03:47:14.571Z,10.90
2018-09-18T03:48:14.546Z,8.20
2018-09-18T03:49:14.533Z,11.20
2018-09-18T03:50:14.512Z,9.00
2018-09-18T03:51:14.498Z,9.10
2018-09-18T03:52:14.478Z,11.40
2018-09-18T03:53:14.462Z,9.20
2018-09-18T03:54:14.446Z,8.10
2018-09-18T03:55:14.442Z,12.70
2018-09-18T03:56:14.421Z,10.00
2018-09-18T03:57:14.400Z,8.10
2018-09-18T03:58:14.387Z,9.70
2018-09-18T03:59:14.365Z,8.80
2018-09-18T04:00:14.347Z,10.20
2018-09-18T04:01:14.329Z,11.30
2018-09-18T04:02:14.314Z,12.70
2018-09-18T04:03:14.315Z,11.80
2018-09-18T04:04:14.278Z,8.80
2018-09-18T04:05:14.289Z,11.70
2018-09-18T04:06:14.257Z,11.00
2018-09-18T04:07:14.233Z,9.70
2018-09-18T04:08:14.216Z,8.40
2018-09-18T04:09:14.197Z,10.10
2018-09-18T04:10:14.191Z,10.30
2018-09-18T04:11:14.174Z,10.40
2018-09-18T04:12:14.150Z,11.50
2018-09-18T04:13:14.130Z,10.10
2018-09-18T04:14:14.123Z,10.60
2018-09-18T04:15:14.095Z,11.20
2018-09-18T04:16:14.075Z,11.30
2018-09-18T04:17:14.080Z,10.40
2018-09-18T04:18:14.047Z,9.70
2018-09-18T04:19:14.029Z,8.80
2018-09-18T04:20:14.011Z,9.70
2018-09-18T04:21:13.995Z,12.00
2018-09-18T04:22:13.995Z,10.20
2018-09-18T04:23:13.963Z,10.80
2018-09-18T04:24:13.948Z,8.80
2018-09-18T04:25:13.931Z,14.10
2018-09-18T04:26:13.922Z,11.40
2018-09-18T04:27:13.896Z,9.90
2018-09-18T04:28:13.880Z,10.90
2018-09-18T04:29:13.861Z,7.30
2018-09-18T04:30:13.852Z,11.00
2018-09-18T04:31:13.835Z,8.70
2018-09-18T04:32:13.811Z,11.20
2018-09-18T04:33:13.796Z,10.80
2018-09-18T04:34:13.781Z,10.00
2018-09-18T04:35:13.760Z,9.10
2018-09-18T04:36:13.754Z,8.60
2018-09-18T04:37:13.731Z,12.40
2018-09-18T04:38:13.711Z,8.20
2018-09-18T04:39:13.705Z,8.30
2018-09-18T04:40:13.681Z,11.00
2018-09-18T04:41:13.662Z,10.60
2018-09-18T04:42:13.649Z,10.90
2018-09-18T04:43:13.638Z,13.90
2018-09-18T04:44:13.610Z,10.00
2018-09-18T04:45:13.593Z,14.00
2018-09-18T04:46:13.585Z,10.60
2018-09-18T04:47:13.569Z,10.00
2018-09-18T04:48:13.551Z,8.80
2018-09-18T04:49:13.527Z,10.50
2018-09-18T04:50:13.511Z,7.70
2018-09-18T04:51:13.496Z,10.50
2018-09-18T04:52:13.480Z,10.40
2018-09-18T04:53:13.470Z,9.50
2018-09-18T04:54:13.451Z,9.30
2018-09-18T04:55:13.428Z,10.70
2018-09-18T04:56:13.412Z,12.10
2018-09-18T04:57:13.395Z,11.00
2018-09-18T04:58:13.376Z,9.50
2018-09-18T04:59:13.359Z,9.70
2018-09-18T05:00:13.343Z,7.70
2018-09-18T05:01:13.328Z,8.80
2018-09-18T05:02:13.350Z,8.50
2018-09-18T05:03:13.289Z,14.80
2018-09-18T05:04:13.272Z,9.70
2018-09-18T05:05:13.262Z,12.50
2018-09-18T05:06:13.248Z,13.50
2018-09-18T05:07:13.226Z,10.50
2018-09-18T05:08:13.212Z,9.60
2018-09-18T05:09:13.281Z,12.80
2018-09-18T05:10:13.172Z,17.30
2018-09-18T05:11:13.165Z,15.30
2018-09-18T05:12:13.139Z,16.40
2018-09-18T05:13:13.125Z,10.60
2018-09-18T05:14:13.102Z,15.80
2018-09-18T05:15:13.088Z,13.30
2018-09-18T05:16:13.071Z,11.50
2018-09-18T05:17:13.052Z,11.80
2018-09-18T05:18:13.036Z,15.20
2018-09-18T05:19:13.019Z,12.80
2018-09-18T05:20:13.003Z,13.40
2018-09-18T05:21:12.985Z,13.00
2018-09-18T05:22:12.967Z,12.40
2018-09-18T05:23:12.951Z,12.20
2018-09-18T05:24:12.969Z,10.30
2018-09-18T05:25:12.917Z,10.60
2018-09-18T05:26:12.899Z,12.50
2018-09-18T05:27:12.990Z,16.80
2018-09-18T05:28:12.874Z,14.50
2018-09-18T05:29:12.852Z,14.80
2018-09-18T05:30:12.845Z,15.10
2018-09-18T05:31:12.818Z,19.10
2018-09-18T05:32:12.799Z,21.70
2018-09-18T05:33:12.782Z,34.20
2018-09-18T05:34:12.764Z,33.60
2018-09-18T05:35:12.764Z,26.60
2018-09-18T05:36:12.730Z,20.70
2018-09-18T05:37:12.716Z,15.60
2018-09-18T05:38:12.705Z,22.90
2018-09-18T05:39:12.682Z,22.10
2018-09-18T05:40:12.664Z,21.30
2018-09-18T05:41:12.645Z,20.40
2018-09-18T05:42:12.629Z,17.40
2018-09-18T05:43:12.613Z,19.10
2018-09-18T05:44:12.603Z,20.40
2018-09-18T05:45:12.580Z,18.80
2018-09-18T05:46:12.560Z,15.00
2018-09-18T05:47:12.546Z,19.50
2018-09-18T05:48:12.566Z,17.60
2018-09-18T05:49:12.519Z,20.40
2018-09-18T05:50:12.494Z,23.90
2018-09-18T05:51:12.486Z,17.90
2018-09-18T05:52:12.465Z,21.90
2018-09-18T05:53:12.443Z,18.80
2018-09-18T05:54:12.435Z,18.90
2018-09-18T05:55:12.423Z,15.70
2018-09-18T05:56:12.393Z,23.50
2018-09-18T05:57:12.388Z,21.00
2018-09-18T05:58:12.359Z,13.40
2018-09-18T05:59:12.348Z,14.40
2018-09-18T06:00:12.325Z,15.60
2018-09-18T06:01:12.307Z,13.30
2018-09-18T06:02:12.359Z,14.10
2018-09-18T06:03:12.274Z,18.60
2018-09-18T06:04:12.261Z,16.20
2018-09-18T06:05:12.244Z,17.70
2018-09-18T06:06:12.226Z,13.40
2018-09-18T06:07:12.207Z,15.00
2018-09-18T06:08:12.193Z,14.20
2018-09-18T06:09:12.175Z,13.10
2018-09-18T06:10:12.164Z,14.00
2018-09-18T06:11:12.138Z,15.70
2018-09-18T06:12:12.127Z,17.20
2018-09-18T06:13:12.107Z,13.20
2018-09-18T06:14:12.090Z,16.50
2018-09-18T06:15:12.074Z,21.80
2018-09-18T06:16:12.059Z,16.90
2018-09-18T06:17:12.045Z,14.70
2018-09-18T06:18:12.028Z,16.80
2018-09-18T06:19:12.123Z,16.20
2018-09-18T06:20:11.992Z,14.10
2018-09-18T06:21:11.977Z,13.30
2018-09-18T06:22:11.962Z,10.30
2018-09-18T06:23:11.941Z,10.90
2018-09-18T06:24:11.922Z,12.30
2018-09-18T06:25:11.912Z,15.10
2018-09-18T06:26:11.908Z,15.90
2018-09-18T06:27:11.872Z,13.80
2018-09-18T06:28:11.862Z,12.40
2018-09-18T06:29:11.840Z,11.80
2018-09-18T06:30:11.828Z,12.10
2018-09-18T06:31:11.813Z,9.70
2018-09-18T06:32:11.791Z,13.10
2018-09-18T06:33:11.775Z,11.70
2018-09-18T06:34:11.756Z,13.40
2018-09-18T06:35:11.742Z,12.80
2018-09-18T06:36:11.726Z,17.60
2018-09-18T06:37:11.707Z,11.80
2018-09-18T06:38:11.694Z,11.90
2018-09-18T06:39:11.684Z,13.50
2018-09-18T06:40:11.810Z,12.40
2018-09-18T06:41:11.642Z,11.90
2018-09-18T06:42:11.628Z,12.80
2018-09-18T06:43:11.616Z,11.20
2018-09-18T06:44:11.609Z,12.40
2018-09-18T06:45:11.579Z,12.20
2018-09-18T06:46:11.566Z,15.00
2018-09-18T06:47:11.544Z,13.70
2018-09-18T06:48:11.527Z,14.80
2018-09-18T06:49:11.514Z,13.90
2018-09-18T06:50:11.495Z,12.10
2018-09-18T06:51:11.480Z,10.30
2018-09-18T06:52:11.461Z,12.50
2018-09-18T06:53:11.445Z,14.10
2018-09-18T06:54:11.429Z,14.40
2018-09-18T06:55:11.412Z,14.30
2018-09-18T06:56:11.468Z,10.60
2018-09-18T06:57:11.393Z,11.10
2018-09-18T06:58:11.362Z,11.80
2018-09-18T06:59:11.440Z,12.20
2018-09-18T07:00:11.330Z,9.40
2018-09-18T07:01:11.315Z,11.70
2018-09-18T07:02:11.302Z,11.40
2018-09-18T07:03:11.284Z,14.10
2018-09-18T07:04:11.265Z,14.10
2018-09-18T07:05:11.257Z,17.50
2018-09-18T07:06:11.235Z,11.50
2018-09-18T07:07:11.225Z,17.60
2018-09-18T07:08:11.208Z,12.10
2018-09-18T07:09:11.188Z,10.30
2018-09-18T07:10:11.167Z,10.70
2018-09-18T07:11:11.153Z,15.60
2018-09-18T07:12:11.134Z,14.40
2018-09-18T07:13:11.124Z,9.60
2018-09-18T07:14:11.104Z,15.20
2018-09-18T07:15:11.254Z,11.30
2018-09-18T07:16:11.080Z,11.00
2018-09-18T07:17:11.059Z,13.40
2018-09-18T07:18:11.162Z,12.30
2018-09-18T07:19:11.023Z,11.20
2018-09-18T07:20:11.008Z,11.10
2018-09-18T07:21:10.989Z,11.80
2018-09-18T07:22:10.984Z,11.60
2018-09-18T07:23:10.966Z,12.80
2018-09-18T07:24:10.948Z,9.90
2018-09-18T07:25:10.929Z,12.70
2018-09-18T07:26:10.909Z,12.10
2018-09-18T07:27:10.892Z,11.80
2018-09-18T07:28:10.878Z,13.90
2018-09-18T07:29:10.862Z,12.70
2018-09-18T07:30:10.846Z,11.80
2018-09-18T07:31:10.831Z,12.30
2018-09-18T07:32:10.820Z,13.30
2018-09-18T07:33:10.804Z,10.50
2018-09-18T07:34:10.783Z,13.60
2018-09-18T07:35:10.766Z,10.50
2018-09-18T07:36:10.819Z,11.90
2018-09-18T07:37:10.740Z,11.90
2018-09-18T07:38:10.718Z,10.20
2018-09-18T07:39:10.705Z,11.00
2018-09-18T07:40:10.686Z,13.50
2018-09-18T07:41:10.779Z,11.30
2018-09-18T07:42:10.654Z,10.50
2018-09-18T07:43:10.645Z,14.20
2018-09-18T07:44:10.630Z,14.80
2018-09-18T07:45:10.709Z,13.30
2018-09-18T07:46:10.595Z,9.90
2018-09-18T07:47:10.584Z,11.00
2018-09-18T07:48:10.560Z,12.60
2018-09-18T07:49:10.544Z,10.50
2018-09-18T07:50:10.539Z,12.20
2018-09-18T07:51:10.520Z,12.50
2018-09-18T07:52:10.514Z,10.00
2018-09-18T07:53:10.497Z,10.00
2018-09-18T07:54:10.472Z,12.20
2018-09-18T07:55:10.454Z,10.60
2018-09-18T07:56:10.438Z,12.50
2018-09-18T07:57:10.423Z,11.80
2018-09-18T07:58:10.414Z,9.60
2018-09-18T07:59:10.392Z,11.60
2018-09-18T08:00:10.378Z,11.20
2018-09-18T08:01:10.518Z,10.00
2018-09-18T08:02:10.349Z,11.70
2018-09-18T08:03:10.388Z,10.80
2018-09-18T08:04:10.315Z,9.60
2018-09-18T08:05:10.310Z,14.30
2018-09-18T08:06:10.287Z,10.20
2018-09-18T08:07:10.282Z,10.60
2018-09-18T08:08:10.254Z,10.20
2018-09-18T08:09:10.250Z,11.50
2018-09-18T08:10:10.225Z,14.40
2018-09-18T08:11:10.214Z,14.90
2018-09-18T08:12:10.197Z,12.90
2018-09-18T08:13:10.184Z,12.20
2018-09-18T08:14:10.173Z,14.70
2018-09-18T08:15:10.152Z,10.30
2018-09-18T08:16:10.146Z,12.70
2018-09-18T08:17:10.123Z,12.80
2018-09-18T08:18:10.118Z,11.30
2018-09-18T08:19:10.126Z,15.60
2018-09-18T08:20:10.084Z,14.40
2018-09-18T08:21:10.068Z,15.80
2018-09-18T08:22:10.124Z,10.10
2018-09-18T08:23:10.047Z,16.00
2018-09-18T08:24:10.021Z,11.80
2018-09-18T08:25:10.037Z,14.40
2018-09-18T08:26:09.995Z,13.50
2018-09-18T08:27:10.008Z,12.40
2018-09-18T08:28:09.964Z,11.30
2018-09-18T08:29:09.951Z,9.10
2018-09-18T08:30:09.938Z,10.70
2018-09-18T08:31:09.922Z,10.00
2018-09-18T08:32:09.909Z,11.10
2018-09-18T08:33:09.903Z,10.20
2018-09-18T08:34:09.887Z,8.20
2018-09-18T08:35:09.873Z,10.40
2018-09-18T08:36:09.853Z,11.90
2018-09-18T08:37:09.839Z,13.60
2018-09-18T08:38:09.834Z,12.90
2018-09-18T08:39:09.839Z,12.70
2018-09-18T08:40:10.023Z,9.60
2018-09-18T08:41:09.787Z,9.30
2018-09-18T08:42:09.771Z,12.10
2018-09-18T08:43:09.761Z,9.10
2018-09-18T08:44:09.754Z,8.50
2018-09-18T08:45:09.734Z,12.80
2018-09-18T08:46:09.763Z,29.20
2018-09-18T08:47:09.757Z,14.70
2018-09-18T08:48:09.701Z,14.20
2018-09-18T08:49:09.682Z,16.00
2018-09-18T08:50:09.680Z,11.30
2018-09-18T08:51:09.677Z,9.10
2018-09-18T08:52:09.789Z,12.50
2018-09-18T08:53:09.640Z,7.30
2018-09-18T08:54:09.626Z,15.20
2018-09-18T08:55:09.605Z,10.50
2018-09-18T08:56:09.592Z,8.10
2018-09-18T08:57:09.597Z,11.10
2018-09-18T08:58:09.593Z,10.30
2018-09-18T08:59:09.593Z,9.60
2018-09-18T09:00:09.551Z,12.20
2018-09-18T09:01:09.539Z,7.80
2018-09-18T09:02:09.531Z,8.70
2018-09-18T09:03:09.591Z,7.90
2018-09-18T09:04:09.504Z,7.70
2018-09-18T09:05:09.551Z,7.40
2018-09-18T09:06:09.543Z,9.00
2018-09-18T09:07:09.470Z,6.40
2018-09-18T09:08:09.607Z,10.00
2018-09-18T09:09:09.526Z,9.00
2018-09-18T09:10:09.577Z,8.60
2018-09-18T09:11:09.424Z,10.50
2018-09-18T09:12:09.413Z,9.70
2018-09-18T09:13:09.401Z,8.00
2018-09-18T09:14:09.395Z,7.70
2018-09-18T09:15:09.469Z,8.50
2018-09-18T09:16:09.369Z,9.40
2018-09-18T09:17:09.359Z,7.30
2018-09-18T09:18:09.434Z,11.40
2018-09-18T09:19:09.335Z,9.30
2018-09-18T09:20:09.351Z,6.70
2018-09-18T09:21:09.487Z,10.10
2018-09-18T09:22:09.407Z,10.80
2018-09-18T09:23:09.320Z,5.80
2018-09-18T09:24:09.284Z,6.90
2018-09-18T09:25:09.271Z,9.20
2018-09-18T09:26:09.265Z,8.10
2018-09-18T09:27:09.282Z,7.20
2018-09-18T09:28:09.260Z,9.90
2018-09-18T09:29:09.227Z,8.30
2018-09-18T09:30:09.335Z,8.40
2018-09-18T09:31:09.210Z,8.40
2018-09-18T09:32:09.312Z,5.90
2018-09-18T09:33:09.184Z,11.90
2018-09-18T09:34:09.198Z,16.90
2018-09-18T09:35:09.171Z,14.40
2018-09-18T09:36:09.158Z,16.40
2018-09-18T09:37:09.190Z,14.10
2018-09-18T09:38:11.793Z,12.50
2018-09-18T09:39:09.137Z,10.70
2018-09-18T09:40:09.133Z,6.70
2018-09-18T09:41:09.117Z,5.70
2018-09-18T09:42:09.115Z,7.60
2018-09-18T09:43:09.100Z,13.10
2018-09-18T09:44:09.091Z,8.20
2018-09-18T09:45:11.817Z,6.60
2018-09-18T09:46:09.080Z,6.40
2018-09-18T09:47:09.077Z,8.60
2018-09-18T09:48:09.073Z,7.10
2018-09-18T09:49:09.077Z,5.50
2018-09-18T09:50:09.061Z,8.30
2018-09-18T09:51:09.159Z,5.90
2018-09-18T09:52:09.058Z,6.50
2018-09-18T09:53:10.467Z,7.80
2018-09-18T09:54:09.043Z,6.90
2018-09-18T09:55:09.042Z,7.40
2018-09-18T09:56:09.035Z,7.10
2018-09-18T09:57:09.035Z,7.80
2018-09-18T09:58:09.039Z,4.70
2018-09-18T09:59:09.037Z,7.00
2018-09-18T10:00:09.046Z,7.40
2018-09-18T10:01:09.022Z,8.10
2018-09-18T10:02:09.022Z,6.60
2018-09-18T10:03:09.022Z,6.80
2018-09-18T10:04:09.015Z,8.40
2018-09-18T10:05:09.018Z,6.20
2018-09-18T10:06:09.010Z,5.50
2018-09-18T10:07:09.018Z,9.80
2018-09-18T10:08:09.011Z,6.30
2018-09-18T10:09:09.007Z,12.00
2018-09-18T10:10:09.005Z,7.20
2018-09-18T10:11:09.012Z,5.30
2018-09-18T10:12:09.001Z,13.50
2018-09-18T10:13:09.011Z,8.60
2018-09-18T10:14:09.004Z,11.90
2018-09-18T10:15:09.025Z,7.70
2018-09-18T10:16:08.999Z,5.60
2018-09-18T10:17:08.997Z,6.10
2018-09-18T10:18:09.097Z,7.40
2018-09-18T10:19:08.997Z,15.30
2018-09-18T10:20:08.997Z,15.80
2018-09-18T10:21:08.994Z,12.30
2018-09-18T10:22:08.994Z,12.40
2018-09-18T10:23:09.026Z,13.70
2018-09-18T10:24:09.011Z,6.00
2018-09-18T10:25:09.015Z,8.00
2018-09-18T10:26:09.161Z,5.70
2018-09-18T10:27:09.143Z,6.20
2018-09-18T10:28:09.001Z,5.70
2018-09-18T10:29:08.999Z,5.50
2018-09-18T10:30:08.993Z,6.00
2018-09-18T10:31:09.027Z,5.60
2018-09-18T10:32:09.003Z,7.20
2018-09-18T10:33:09.007Z,8.70
2018-09-18T10:34:08.998Z,6.70
2018-09-18T10:35:09.008Z,5.30
2018-09-18T10:36:08.989Z,5.60
2018-09-18T10:37:09.024Z,5.60
2018-09-18T10:38:08.990Z,6.10
2018-09-18T10:39:09.026Z,8.30
2018-09-18T10:40:09.034Z,10.00
2018-09-18T10:41:09.112Z,9.20
2018-09-18T10:42:09.041Z,7.90
2018-09-18T10:43:08.992Z,7.90
2018-09-18T10:44:08.993Z,5.40
2018-09-18T10:45:08.996Z,7.90
2018-09-18T10:46:08.986Z,5.40
2018-09-18T10:47:08.988Z,7.60
2018-09-18T10:48:09.007Z,9.00
2018-09-18T10:49:09.002Z,7.30
2018-09-18T10:50:09.000Z,4.90
2018-09-18T10:51:08.986Z,6.30
2018-09-18T10:52:08.988Z,6.60
2018-09-18T10:53:08.985Z,6.60
2018-09-18T10:54:08.994Z,8.20
2018-09-18T10:55:09.000Z,7.90
2018-09-18T10:56:08.986Z,8.70
2018-09-18T10:57:08.993Z,6.70
2018-09-18T10:58:08.991Z,5.80
2018-09-18T10:59:08.987Z,10.80
2018-09-18T11:00:08.984Z,9.80
2018-09-18T11:01:08.997Z,8.10
2018-09-18T11:02:09.119Z,6.50
2018-09-18T11:03:09.016Z,6.90
2018-09-18T11:04:08.985Z,7.30
2018-09-18T11:05:09.118Z,10.80
2018-09-18T11:06:09.008Z,8.40
2018-09-18T11:07:09.085Z,7.60
2018-09-18T11:08:09.023Z,8.70
2018-09-18T11:09:08.993Z,8.00
2018-09-18T11:10:09.069Z,9.40
2018-09-18T11:11:09.004Z,13.20
2018-09-18T11:12:08.987Z,11.70
2018-09-18T11:13:09.035Z,12.10
2018-09-18T11:14:09.009Z,11.70
2018-09-18T11:15:08.984Z,10.90
2018-09-18T11:16:09.198Z,10.80
2018-09-18T11:17:09.003Z,7.00
2018-09-18T11:18:09.125Z,8.20
2018-09-18T11:19:08.981Z,7.90
2018-09-18T11:20:08.979Z,9.60
2018-09-18T11:21:08.984Z,7.30
2018-09-18T11:22:09.011Z,9.20
2018-09-18T11:23:08.987Z,8.10
2018-09-18T11:24:09.070Z,7.00
2018-09-18T11:25:09.027Z,6.80
2018-09-18T11:26:08.997Z,7.90
2018-09-18T11:27:08.984Z,8.80
2018-09-18T11:28:08.996Z,8.20
2018-09-18T11:29:08.978Z,8.90
2018-09-18T11:30:08.983Z,6.50
2018-09-18T11:31:08.997Z,11.60
2018-09-18T11:32:08.981Z,7.10
2018-09-18T11:33:08.969Z,10.80
2018-09-18T11:34:08.970Z,11.60
2018-09-18T11:35:08.964Z,6.10
2018-09-18T11:36:08.963Z,10.40
2018-09-18T11:37:08.961Z,10.10
2018-09-18T11:38:08.973Z,10.30
2018-09-18T11:39:08.964Z,10.70
2018-09-18T11:40:08.958Z,7.80
2018-09-18T11:41:08.999Z,7.70
2018-09-18T11:42:08.950Z,10.70
2018-09-18T11:43:11.571Z,11.70
2018-09-18T11:44:09.064Z,12.30
2018-09-18T11:45:08.941Z,9.40
2018-09-18T11:46:08.940Z,9.60
2018-09-18T11:47:08.941Z,9.70
2018-09-18T11:48:08.946Z,8.50
2018-09-18T11:49:08.938Z,11.00
2018-09-18T11:50:08.942Z,10.70
2018-09-18T11:51:08.942Z,10.90
2018-09-18T11:52:08.927Z,11.40
2018-09-18T11:53:08.920Z,10.20
2018-09-18T11:54:08.920Z,13.00
2018-09-18T11:55:08.917Z,13.80
2018-09-18T11:56:08.907Z,8.40
2018-09-18T11:57:08.992Z,6.30
2018-09-18T11:58:08.900Z,6.60
2018-09-18T11:59:08.899Z,12.10
2018-09-18T12:00:08.925Z,7.50
2018-09-18T12:01:08.900Z,12.30
2018-09-18T12:02:08.885Z,10.10
2018-09-18T12:03:08.942Z,9.50
2018-09-18T12:04:08.874Z,9.20
2018-09-18T12:05:08.950Z,8.30
2018-09-18T12:06:08.866Z,9.20
2018-09-18T12:07:08.859Z,9.60
2018-09-18T12:08:08.864Z,23.40
2018-09-18T12:09:08.909Z,16.20
2018-09-18T12:10:08.855Z,10.90
2018-09-18T12:11:08.840Z,9.70
2018-09-18T12:12:08.835Z,8.60
2018-09-18T12:13:08.839Z,9.70
2018-09-18T12:14:08.826Z,9.00
2018-09-18T12:15:08.826Z,9.20
2018-09-18T12:16:08.811Z,12.10
2018-09-18T12:17:08.835Z,5.40
2018-09-18T12:18:08.797Z,7.90
2018-09-18T12:19:08.792Z,7.10
2018-09-18T12:20:08.805Z,8.00
2018-09-18T12:21:08.788Z,8.70
2018-09-18T12:22:08.777Z,11.00
2018-09-18T12:23:08.764Z,11.90
2018-09-18T12:24:08.766Z,9.60
2018-09-18T12:25:08.747Z,12.70
2018-09-18T12:26:08.769Z,10.60
2018-09-18T12:27:08.744Z,9.60
2018-09-18T12:28:08.739Z,9.60
2018-09-18T12:29:08.730Z,11.10
2018-09-18T12:30:08.727Z,9.90
2018-09-18T12:31:08.706Z,9.70
2018-09-18T12:32:08.705Z,8.70
2018-09-18T12:33:08.693Z,9.50
2018-09-18T12:34:08.691Z,9.90
2018-09-18T12:35:08.712Z,8.10
2018-09-18T12:36:08.692Z,12.30
2018-09-18T12:37:08.669Z,10.10
2018-09-18T12:38:08.663Z,7.70
2018-09-18T12:39:08.656Z,7.20
2018-09-18T12:40:08.644Z,9.70
2018-09-18T12:41:08.638Z,9.40
2018-09-18T12:42:08.871Z,6.50
2018-09-18T12:43:57.355Z,10.40
2018-09-18T12:44:57.354Z,9.40
2018-09-18T12:45:57.343Z,5.70
2018-09-18T12:46:57.329Z,7.90
2018-09-18T12:47:57.346Z,8.00
2018-09-18T12:48:57.331Z,6.60
2018-09-18T12:49:57.492Z,8.30
2018-09-18T12:50:57.421Z,10.30
2018-09-18T12:51:57.302Z,9.40
2018-09-18T12:52:57.284Z,12.00
2018-09-18T12:53:57.277Z,10.70
2018-09-18T12:54:57.276Z,12.10
2018-09-18T12:55:57.409Z,11.10
2018-09-18T12:56:57.350Z,13.00
2018-09-18T12:57:57.275Z,11.30
2018-09-18T12:58:57.478Z,9.70
2018-09-18T12:59:57.271Z,8.70
2018-09-18T13:00:57.218Z,10.60
2018-09-18T13:01:57.309Z,8.00
2018-09-18T13:02:57.207Z,9.60
2018-09-18T13:03:57.194Z,11.40
2018-09-18T13:04:57.186Z,9.70